sensor_id;sensor_type;location;lat;lon;timestamp;temperature;humidity
58469;DHT22;44257;44.804;10.220;2023-02-28T00:01:23;4.40;99.90
58469;DHT22;44257;44.804;10.220;2023-02-28T00:03:48;4.40;99.90
58469;DHT22;44257;44.804;10.220;2023-02-28T00:06:15;4.30;99.90
58469;DHT22;44257;44.804;10.220;2023-02-28T00:08:40;4.30;99.90
58469;DHT22;44257;44.804;10.220;2023-02-28T00:11:09;4.30;99.90
58469;DHT22;44257;44.804;10.220;2023-02-28T00:13:36;4.30;99.90
58469;DHT22;44257;44.804;10.220;2023-02-28T00:16:08;4.30;99.90
58469;DHT22;44257;44.804;10.220;2023-02-28T00:18:35;4.30;99.90
58469;DHT22;44257;44.804;10.220;2023-02-28T00:21:01;4.30;99.90
58469;DHT22;44257;44.804;10.220;2023-02-28T00:23:27;4.20;99.90
58469;DHT22;44257;44.804;10.220;2023-02-28T00:25:53;4.20;99.90
58469;DHT22;44257;44.804;10.220;2023-02-28T00:28:19;4.20;99.90
58469;DHT22;44257;44.804;10.220;2023-02-28T00:30:46;4.20;99.90
58469;DHT22;44257;44.804;10.220;2023-02-28T00:33:12;4.20;99.90
58469;DHT22;44257;44.804;10.220;2023-02-28T00:35:38;4.10;99.90
58469;DHT22;44257;44.804;10.220;2023-02-28T00:38:04;4.00;99.90
58469;DHT22;44257;44.804;10.220;2023-02-28T00:40:30;4.00;99.90
58469;DHT22;44257;44.804;10.220;2023-02-28T00:42:55;4.00;99.90
58469;DHT22;44257;44.804;10.220;2023-02-28T00:45:21;4.00;99.90
58469;DHT22;44257;44.804;10.220;2023-02-28T00:47:47;4.10;99.90
58469;DHT22;44257;44.804;10.220;2023-02-28T00:50:18;4.00;99.90
58469;DHT22;44257;44.804;10.220;2023-02-28T00:52:45;4.00;99.90
58469;DHT22;44257;44.804;10.220;2023-02-28T00:55:13;4.00;99.90
58469;DHT22;44257;44.804;10.220;2023-02-28T00:57:39;4.00;99.90
58469;DHT22;44257;44.804;10.220;2023-02-28T01:00:06;3.90;99.90
58469;DHT22;44257;44.804;10.220;2023-02-28T01:02:33;3.90;99.90
58469;DHT22;44257;44.804;10.220;2023-02-28T01:04:58;3.90;99.90
58469;DHT22;44257;44.804;10.220;2023-02-28T01:07:24;3.90;99.90
58469;DHT22;44257;44.804;10.220;2023-02-28T01:09:50;3.90;99.90
58469;DHT22;44257;44.804;10.220;2023-02-28T01:12:16;3.80;99.90
58469;DHT22;44257;44.804;10.220;2023-02-28T01:14:42;3.80;99.90
58469;DHT22;44257;44.804;10.220;2023-02-28T01:17:08;3.80;99.90
58469;DHT22;44257;44.804;10.220;2023-02-28T01:19:34;3.80;99.90
58469;DHT22;44257;44.804;10.220;2023-02-28T01:22:03;3.80;99.90
58469;DHT22;44257;44.804;10.220;2023-02-28T01:24:30;3.80;99.90
58469;DHT22;44257;44.804;10.220;2023-02-28T01:26:55;3.80;99.90
58469;DHT22;44257;44.804;10.220;2023-02-28T01:29:21;3.70;99.90
58469;DHT22;44257;44.804;10.220;2023-02-28T01:31:47;3.70;99.90
58469;DHT22;44257;44.804;10.220;2023-02-28T01:34:13;3.70;99.90
58469;DHT22;44257;44.804;10.220;2023-02-28T01:36:39;3.70;99.90
58469;DHT22;44257;44.804;10.220;2023-02-28T01:39:05;3.70;99.90
58469;DHT22;44257;44.804;10.220;2023-02-28T01:41:34;3.60;99.90
58469;DHT22;44257;44.804;10.220;2023-02-28T01:46:52;3.60;99.90
58469;DHT22;44257;44.804;10.220;2023-02-28T01:49:18;3.60;99.90
58469;DHT22;44257;44.804;10.220;2023-02-28T01:51:48;3.60;99.90
58469;DHT22;44257;44.804;10.220;2023-02-28T01:54:27;3.60;99.90
58469;DHT22;44257;44.804;10.220;2023-02-28T01:57:07;3.60;99.90
58469;DHT22;44257;44.804;10.220;2023-02-28T01:59:45;3.60;99.90
58469;DHT22;44257;44.804;10.220;2023-02-28T02:02:15;3.50;99.90
58469;DHT22;44257;44.804;10.220;2023-02-28T02:04:57;3.60;99.90
58469;DHT22;44257;44.804;10.220;2023-02-28T02:07:25;3.60;99.90
58469;DHT22;44257;44.804;10.220;2023-02-28T02:10:05;3.60;99.90
58469;DHT22;44257;44.804;10.220;2023-02-28T02:16:48;3.60;99.90
58469;DHT22;44257;44.804;10.220;2023-02-28T02:19:07;3.60;99.90
58469;DHT22;44257;44.804;10.220;2023-02-28T02:27:57;3.70;99.90
58469;DHT22;44257;44.804;10.220;2023-02-28T02:36:14;3.70;99.90
58469;DHT22;44257;44.804;10.220;2023-02-28T02:41:52;3.70;99.90
58469;DHT22;44257;44.804;10.220;2023-02-28T02:46:45;3.80;99.90
58469;DHT22;44257;44.804;10.220;2023-02-28T02:49:29;3.80;99.90
58469;DHT22;44257;44.804;10.220;2023-02-28T02:51:59;3.80;99.90
58469;DHT22;44257;44.804;10.220;2023-02-28T02:54:30;3.90;99.90
58469;DHT22;44257;44.804;10.220;2023-02-28T02:57:01;3.90;99.90
58469;DHT22;44257;44.804;10.220;2023-02-28T02:59:30;3.90;99.90
58469;DHT22;44257;44.804;10.220;2023-02-28T03:02:00;3.90;99.90
58469;DHT22;44257;44.804;10.220;2023-02-28T03:04:32;3.90;99.90
58469;DHT22;44257;44.804;10.220;2023-02-28T03:06:58;3.90;99.90
58469;DHT22;44257;44.804;10.220;2023-02-28T03:09:25;3.90;99.90
58469;DHT22;44257;44.804;10.220;2023-02-28T03:11:53;3.90;99.90
58469;DHT22;44257;44.804;10.220;2023-02-28T03:17:41;4.00;99.90
58469;DHT22;44257;44.804;10.220;2023-02-28T03:25:34;4.00;99.90
58469;DHT22;44257;44.804;10.220;2023-02-28T03:30:52;4.10;99.90
58469;DHT22;44257;44.804;10.220;2023-02-28T03:33:34;4.00;99.90
58469;DHT22;44257;44.804;10.220;2023-02-28T03:36:09;4.00;99.90
58469;DHT22;44257;44.804;10.220;2023-02-28T03:38:42;4.00;99.90
58469;DHT22;44257;44.804;10.220;2023-02-28T03:41:17;4.00;99.90
58469;DHT22;44257;44.804;10.220;2023-02-28T03:44:10;4.10;99.90
58469;DHT22;44257;44.804;10.220;2023-02-28T03:46:44;4.00;99.90
58469;DHT22;44257;44.804;10.220;2023-02-28T03:49:30;4.00;99.90
58469;DHT22;44257;44.804;10.220;2023-02-28T03:52:00;4.00;99.90
58469;DHT22;44257;44.804;10.220;2023-02-28T03:54:33;4.10;99.90
58469;DHT22;44257;44.804;10.220;2023-02-28T03:57:20;4.10;99.90
58469;DHT22;44257;44.804;10.220;2023-02-28T03:59:52;4.00;99.90
58469;DHT22;44257;44.804;10.220;2023-02-28T04:02:20;4.10;99.90
58469;DHT22;44257;44.804;10.220;2023-02-28T04:04:45;4.00;99.90
58469;DHT22;44257;44.804;10.220;2023-02-28T04:07:14;3.90;99.90
58469;DHT22;44257;44.804;10.220;2023-02-28T04:09:40;3.80;99.90
58469;DHT22;44257;44.804;10.220;2023-02-28T04:12:06;3.70;99.90
58469;DHT22;44257;44.804;10.220;2023-02-28T04:14:32;3.80;99.90
58469;DHT22;44257;44.804;10.220;2023-02-28T04:16:58;3.70;99.90
58469;DHT22;44257;44.804;10.220;2023-02-28T04:19:24;3.70;99.90
58469;DHT22;44257;44.804;10.220;2023-02-28T04:21:51;3.60;99.90
58469;DHT22;44257;44.804;10.220;2023-02-28T04:24:23;3.60;99.90
58469;DHT22;44257;44.804;10.220;2023-02-28T04:26:54;3.50;99.90
58469;DHT22;44257;44.804;10.220;2023-02-28T04:29:26;3.50;99.90
58469;DHT22;44257;44.804;10.220;2023-02-28T04:31:52;3.50;99.90
58469;DHT22;44257;44.804;10.220;2023-02-28T04:34:19;3.50;99.90
58469;DHT22;44257;44.804;10.220;2023-02-28T04:36:47;3.50;99.90
58469;DHT22;44257;44.804;10.220;2023-02-28T04:39:16;3.40;99.90
58469;DHT22;44257;44.804;10.220;2023-02-28T04:41:44;3.40;99.90
58469;DHT22;44257;44.804;10.220;2023-02-28T04:44:10;3.40;99.90
58469;DHT22;44257;44.804;10.220;2023-02-28T04:46:36;3.40;99.90
58469;DHT22;44257;44.804;10.220;2023-02-28T04:49:02;3.40;99.90
58469;DHT22;44257;44.804;10.220;2023-02-28T04:51:28;3.40;99.90
58469;DHT22;44257;44.804;10.220;2023-02-28T04:53:54;3.40;99.90
58469;DHT22;44257;44.804;10.220;2023-02-28T04:56:21;3.40;99.90
58469;DHT22;44257;44.804;10.220;2023-02-28T04:58:47;3.40;99.90
58469;DHT22;44257;44.804;10.220;2023-02-28T05:03:47;3.30;99.90
58469;DHT22;44257;44.804;10.220;2023-02-28T05:06:14;3.40;99.90
58469;DHT22;44257;44.804;10.220;2023-02-28T05:08:40;3.50;99.90
58469;DHT22;44257;44.804;10.220;2023-02-28T05:11:12;3.50;99.90
58469;DHT22;44257;44.804;10.220;2023-02-28T05:13:39;3.50;99.90
58469;DHT22;44257;44.804;10.220;2023-02-28T05:16:05;3.60;99.90
58469;DHT22;44257;44.804;10.220;2023-02-28T05:18:31;3.60;99.90
58469;DHT22;44257;44.804;10.220;2023-02-28T05:20:57;3.60;99.90
58469;DHT22;44257;44.804;10.220;2023-02-28T05:23:23;3.60;99.90
58469;DHT22;44257;44.804;10.220;2023-02-28T05:25:49;3.60;99.90
58469;DHT22;44257;44.804;10.220;2023-02-28T05:28:15;3.60;99.90
58469;DHT22;44257;44.804;10.220;2023-02-28T05:30:40;3.60;99.90
58469;DHT22;44257;44.804;10.220;2023-02-28T05:33:06;3.60;99.90
58469;DHT22;44257;44.804;10.220;2023-02-28T05:35:32;3.60;99.90
58469;DHT22;44257;44.804;10.220;2023-02-28T05:37:58;3.50;99.90
58469;DHT22;44257;44.804;10.220;2023-02-28T05:40:24;3.50;99.90
58469;DHT22;44257;44.804;10.220;2023-02-28T05:42:50;3.50;99.90
58469;DHT22;44257;44.804;10.220;2023-02-28T05:45:16;3.50;99.90
58469;DHT22;44257;44.804;10.220;2023-02-28T05:47:42;3.50;99.90
58469;DHT22;44257;44.804;10.220;2023-02-28T05:50:09;3.60;99.90
58469;DHT22;44257;44.804;10.220;2023-02-28T05:52:36;3.50;99.90
58469;DHT22;44257;44.804;10.220;2023-02-28T05:55:03;3.50;99.90
58469;DHT22;44257;44.804;10.220;2023-02-28T05:57:29;3.50;99.90
58469;DHT22;44257;44.804;10.220;2023-02-28T05:59:55;3.50;99.90
58469;DHT22;44257;44.804;10.220;2023-02-28T06:02:21;3.50;99.90
58469;DHT22;44257;44.804;10.220;2023-02-28T06:04:46;3.60;99.90
58469;DHT22;44257;44.804;10.220;2023-02-28T06:07:12;3.60;99.90
58469;DHT22;44257;44.804;10.220;2023-02-28T06:09:38;3.60;99.90
58469;DHT22;44257;44.804;10.220;2023-02-28T06:12:06;3.60;99.90
58469;DHT22;44257;44.804;10.220;2023-02-28T06:14:33;3.60;99.90
58469;DHT22;44257;44.804;10.220;2023-02-28T06:17:00;3.70;99.90
58469;DHT22;44257;44.804;10.220;2023-02-28T06:19:27;3.80;99.90
58469;DHT22;44257;44.804;10.220;2023-02-28T06:21:54;3.80;99.90
58469;DHT22;44257;44.804;10.220;2023-02-28T06:24:25;3.80;99.90
58469;DHT22;44257;44.804;10.220;2023-02-28T06:26:53;3.70;99.90
58469;DHT22;44257;44.804;10.220;2023-02-28T06:29:19;3.70;99.90
58469;DHT22;44257;44.804;10.220;2023-02-28T06:31:46;3.70;99.90
58469;DHT22;44257;44.804;10.220;2023-02-28T06:34:12;3.70;99.90
58469;DHT22;44257;44.804;10.220;2023-02-28T06:36:40;3.70;99.90
58469;DHT22;44257;44.804;10.220;2023-02-28T06:39:07;3.60;99.90
58469;DHT22;44257;44.804;10.220;2023-02-28T06:41:34;3.60;99.90
58469;DHT22;44257;44.804;10.220;2023-02-28T06:44:05;3.60;99.90
58469;DHT22;44257;44.804;10.220;2023-02-28T06:46:32;3.60;99.90
58469;DHT22;44257;44.804;10.220;2023-02-28T06:48:58;3.60;99.90
58469;DHT22;44257;44.804;10.220;2023-02-28T06:51:24;3.60;99.90
58469;DHT22;44257;44.804;10.220;2023-02-28T06:53:50;3.50;99.90
58469;DHT22;44257;44.804;10.220;2023-02-28T06:56:17;3.50;99.90
58469;DHT22;44257;44.804;10.220;2023-02-28T06:58:47;3.50;99.90
58469;DHT22;44257;44.804;10.220;2023-02-28T07:01:14;3.50;99.90
58469;DHT22;44257;44.804;10.220;2023-02-28T07:03:40;3.50;99.90
58469;DHT22;44257;44.804;10.220;2023-02-28T07:06:06;3.50;99.90
58469;DHT22;44257;44.804;10.220;2023-02-28T07:08:33;3.50;99.90
58469;DHT22;44257;44.804;10.220;2023-02-28T07:10:59;3.40;99.90
58469;DHT22;44257;44.804;10.220;2023-02-28T07:13:25;3.40;99.90
58469;DHT22;44257;44.804;10.220;2023-02-28T07:16:00;3.40;99.90
58469;DHT22;44257;44.804;10.220;2023-02-28T07:18:27;3.40;99.90
58469;DHT22;44257;44.804;10.220;2023-02-28T07:20:54;3.40;99.90
58469;DHT22;44257;44.804;10.220;2023-02-28T07:23:20;3.40;99.90
58469;DHT22;44257;44.804;10.220;2023-02-28T07:25:46;3.40;99.90
58469;DHT22;44257;44.804;10.220;2023-02-28T07:39:29;3.40;99.90
58469;DHT22;44257;44.804;10.220;2023-02-28T07:41:55;3.80;99.90
58469;DHT22;44257;44.804;10.220;2023-02-28T07:44:26;3.90;99.90
58469;DHT22;44257;44.804;10.220;2023-02-28T07:46:52;4.00;99.90
58469;DHT22;44257;44.804;10.220;2023-02-28T07:49:18;4.10;99.90
58469;DHT22;44257;44.804;10.220;2023-02-28T07:51:44;4.20;99.90
58469;DHT22;44257;44.804;10.220;2023-02-28T07:54:10;4.30;99.90
58469;DHT22;44257;44.804;10.220;2023-02-28T07:56:36;4.40;99.90
58469;DHT22;44257;44.804;10.220;2023-02-28T07:59:02;4.40;99.90
58469;DHT22;44257;44.804;10.220;2023-02-28T08:01:28;4.50;99.90
58469;DHT22;44257;44.804;10.220;2023-02-28T08:03:54;4.50;99.90
58469;DHT22;44257;44.804;10.220;2023-02-28T08:06:22;4.50;99.90
58469;DHT22;44257;44.804;10.220;2023-02-28T08:08:48;4.50;99.90
58469;DHT22;44257;44.804;10.220;2023-02-28T08:11:16;4.60;99.90
58469;DHT22;44257;44.804;10.220;2023-02-28T08:13:42;4.60;99.90
58469;DHT22;44257;44.804;10.220;2023-02-28T08:16:10;4.70;99.90
58469;DHT22;44257;44.804;10.220;2023-02-28T08:18:36;4.70;99.90
58469;DHT22;44257;44.804;10.220;2023-02-28T08:21:09;4.70;99.90
58469;DHT22;44257;44.804;10.220;2023-02-28T08:23:36;4.70;99.90
58469;DHT22;44257;44.804;10.220;2023-02-28T08:26:02;4.80;99.90
58469;DHT22;44257;44.804;10.220;2023-02-28T08:28:29;4.80;99.90
58469;DHT22;44257;44.804;10.220;2023-02-28T08:30:55;4.90;99.90
58469;DHT22;44257;44.804;10.220;2023-02-28T08:33:21;4.90;99.90
58469;DHT22;44257;44.804;10.220;2023-02-28T08:35:48;5.00;99.90
58469;DHT22;44257;44.804;10.220;2023-02-28T08:38:14;5.00;99.90
58469;DHT22;44257;44.804;10.220;2023-02-28T08:40:39;5.00;99.90
58469;DHT22;44257;44.804;10.220;2023-02-28T08:43:06;5.10;99.90
58469;DHT22;44257;44.804;10.220;2023-02-28T08:45:31;5.20;99.90
58469;DHT22;44257;44.804;10.220;2023-02-28T08:47:57;5.30;99.90
58469;DHT22;44257;44.804;10.220;2023-02-28T08:50:23;5.40;99.90
58469;DHT22;44257;44.804;10.220;2023-02-28T08:52:49;5.50;99.90
58469;DHT22;44257;44.804;10.220;2023-02-28T08:55:15;5.60;99.90
58469;DHT22;44257;44.804;10.220;2023-02-28T08:57:41;5.70;99.90
58469;DHT22;44257;44.804;10.220;2023-02-28T09:00:07;5.80;99.90
58469;DHT22;44257;44.804;10.220;2023-02-28T09:02:33;5.90;99.90
58469;DHT22;44257;44.804;10.220;2023-02-28T09:04:59;6.10;99.90
58469;DHT22;44257;44.804;10.220;2023-02-28T09:07:25;6.10;99.90
58469;DHT22;44257;44.804;10.220;2023-02-28T09:09:51;6.20;99.90
58469;DHT22;44257;44.804;10.220;2023-02-28T09:12:26;6.30;99.90
58469;DHT22;44257;44.804;10.220;2023-02-28T09:14:53;6.40;99.90
58469;DHT22;44257;44.804;10.220;2023-02-28T09:17:19;6.50;99.90
58469;DHT22;44257;44.804;10.220;2023-02-28T09:19:47;6.60;99.90
58469;DHT22;44257;44.804;10.220;2023-02-28T09:22:14;6.70;99.90
58469;DHT22;44257;44.804;10.220;2023-02-28T09:24:39;6.80;99.90
58469;DHT22;44257;44.804;10.220;2023-02-28T09:27:06;6.90;99.90
58469;DHT22;44257;44.804;10.220;2023-02-28T09:29:33;7.10;99.90
58469;DHT22;44257;44.804;10.220;2023-02-28T09:31:59;7.30;99.90
58469;DHT22;44257;44.804;10.220;2023-02-28T09:34:26;7.40;99.90
58469;DHT22;44257;44.804;10.220;2023-02-28T09:36:52;7.50;99.90
58469;DHT22;44257;44.804;10.220;2023-02-28T09:39:21;7.60;99.90
58469;DHT22;44257;44.804;10.220;2023-02-28T09:41:50;7.70;99.90
58469;DHT22;44257;44.804;10.220;2023-02-28T09:44:42;7.70;99.90
58469;DHT22;44257;44.804;10.220;2023-02-28T09:57:52;7.70;99.90
58469;DHT22;44257;44.804;10.220;2023-02-28T10:05:13;8.30;99.90
58469;DHT22;44257;44.804;10.220;2023-02-28T10:10:51;8.40;99.90
58469;DHT22;44257;44.804;10.220;2023-02-28T10:16:01;8.70;99.90
58469;DHT22;44257;44.804;10.220;2023-02-28T10:18:43;8.70;99.90
58469;DHT22;44257;44.804;10.220;2023-02-28T10:21:31;8.70;99.90
58469;DHT22;44257;44.804;10.220;2023-02-28T10:24:19;8.70;99.90
58469;DHT22;44257;44.804;10.220;2023-02-28T10:26:47;8.70;99.90
58469;DHT22;44257;44.804;10.220;2023-02-28T10:29:14;8.60;99.90
58469;DHT22;44257;44.804;10.220;2023-02-28T10:31:40;8.50;99.90
58469;DHT22;44257;44.804;10.220;2023-02-28T10:34:07;8.50;99.90
58469;DHT22;44257;44.804;10.220;2023-02-28T10:36:37;8.60;99.90
58469;DHT22;44257;44.804;10.220;2023-02-28T10:39:42;8.70;99.90
58469;DHT22;44257;44.804;10.220;2023-02-28T10:42:24;8.80;99.90
58469;DHT22;44257;44.804;10.220;2023-02-28T10:47:49;8.70;99.90
58469;DHT22;44257;44.804;10.220;2023-02-28T10:50:50;8.80;99.90
58469;DHT22;44257;44.804;10.220;2023-02-28T11:03:45;9.50;99.90
58469;DHT22;44257;44.804;10.220;2023-02-28T11:06:21;9.50;99.90
58469;DHT22;44257;44.804;10.220;2023-02-28T11:08:53;9.60;99.90
58469;DHT22;44257;44.804;10.220;2023-02-28T11:11:21;9.70;99.90
58469;DHT22;44257;44.804;10.220;2023-02-28T11:13:51;9.80;99.90
58469;DHT22;44257;44.804;10.220;2023-02-28T11:16:18;9.80;99.90
58469;DHT22;44257;44.804;10.220;2023-02-28T11:18:52;9.80;99.90
58469;DHT22;44257;44.804;10.220;2023-02-28T11:21:27;9.80;99.90
58469;DHT22;44257;44.804;10.220;2023-02-28T11:26:49;10.00;99.90
58469;DHT22;44257;44.804;10.220;2023-02-28T11:29:30;9.90;99.90
58469;DHT22;44257;44.804;10.220;2023-02-28T11:34:35;9.60;99.90
58469;DHT22;44257;44.804;10.220;2023-02-28T11:37:02;9.50;99.90
58469;DHT22;44257;44.804;10.220;2023-02-28T11:39:32;9.30;99.90
58469;DHT22;44257;44.804;10.220;2023-02-28T11:47:30;9.60;99.90
58469;DHT22;44257;44.804;10.220;2023-02-28T11:52:53;9.70;99.90
58469;DHT22;44257;44.804;10.220;2023-02-28T11:55:26;9.80;99.90
58469;DHT22;44257;44.804;10.220;2023-02-28T12:14:38;10.10;99.90
58469;DHT22;44257;44.804;10.220;2023-02-28T12:17:26;10.00;99.90
58469;DHT22;44257;44.804;10.220;2023-02-28T12:20:33;9.90;99.90
58469;DHT22;44257;44.804;10.220;2023-02-28T12:23:21;9.80;99.90
58469;DHT22;44257;44.804;10.220;2023-02-28T12:26:33;9.70;99.90
58469;DHT22;44257;44.804;10.220;2023-02-28T12:28:46;9.60;99.90
58469;DHT22;44257;44.804;10.220;2023-02-28T12:31:24;9.60;99.90
58469;DHT22;44257;44.804;10.220;2023-02-28T12:33:56;9.50;99.90
58469;DHT22;44257;44.804;10.220;2023-02-28T12:36:25;9.50;99.90
58469;DHT22;44257;44.804;10.220;2023-02-28T12:38:56;9.50;99.90
58469;DHT22;44257;44.804;10.220;2023-02-28T12:41:40;9.50;99.90
58469;DHT22;44257;44.804;10.220;2023-02-28T12:44:19;9.50;99.90
58469;DHT22;44257;44.804;10.220;2023-02-28T12:46:51;9.50;99.90
58469;DHT22;44257;44.804;10.220;2023-02-28T12:51:47;9.40;99.90
58469;DHT22;44257;44.804;10.220;2023-02-28T12:54:19;9.50;99.90
58469;DHT22;44257;44.804;10.220;2023-02-28T12:59:50;9.50;99.90
58469;DHT22;44257;44.804;10.220;2023-02-28T13:05:00;9.40;99.90
58469;DHT22;44257;44.804;10.220;2023-02-28T13:07:40;9.40;99.90
58469;DHT22;44257;44.804;10.220;2023-02-28T13:10:13;9.40;99.90
58469;DHT22;44257;44.804;10.220;2023-02-28T13:12:53;9.50;99.90
58469;DHT22;44257;44.804;10.220;2023-02-28T13:15:23;9.50;99.90
58469;DHT22;44257;44.804;10.220;2023-02-28T13:17:52;9.40;99.90
58469;DHT22;44257;44.804;10.220;2023-02-28T13:20:35;9.50;99.90
58469;DHT22;44257;44.804;10.220;2023-02-28T13:23:02;9.50;99.90
58469;DHT22;44257;44.804;10.220;2023-02-28T13:25:52;9.60;99.90
58469;DHT22;44257;44.804;10.220;2023-02-28T13:31:16;9.80;99.90
58469;DHT22;44257;44.804;10.220;2023-02-28T13:38:42;9.70;99.90
58469;DHT22;44257;44.804;10.220;2023-02-28T13:44:09;10.10;99.90
58469;DHT22;44257;44.804;10.220;2023-02-28T13:49:28;10.40;99.90
58469;DHT22;44257;44.804;10.220;2023-02-28T14:00:28;10.40;99.90
58469;DHT22;44257;44.804;10.220;2023-02-28T14:03:25;10.40;99.90
58469;DHT22;44257;44.804;10.220;2023-02-28T14:06:22;10.30;99.90
58469;DHT22;44257;44.804;10.220;2023-02-28T14:11:27;10.10;99.90
58469;DHT22;44257;44.804;10.220;2023-02-28T14:13:54;10.10;99.90
58469;DHT22;44257;44.804;10.220;2023-02-28T14:16:25;10.20;99.90
58469;DHT22;44257;44.804;10.220;2023-02-28T14:18:59;10.20;99.90
58469;DHT22;44257;44.804;10.220;2023-02-28T14:21:35;10.20;99.90
58469;DHT22;44257;44.804;10.220;2023-02-28T14:35:20;9.70;99.90
58469;DHT22;44257;44.804;10.220;2023-02-28T14:37:48;9.60;99.90
58469;DHT22;44257;44.804;10.220;2023-02-28T14:43:04;9.30;99.90
58469;DHT22;44257;44.804;10.220;2023-02-28T14:45:35;9.20;99.90
58469;DHT22;44257;44.804;10.220;2023-02-28T14:48:05;9.10;99.90
58469;DHT22;44257;44.804;10.220;2023-02-28T14:50:36;9.10;99.90
58469;DHT22;44257;44.804;10.220;2023-02-28T14:53:02;9.10;99.90
58469;DHT22;44257;44.804;10.220;2023-02-28T14:55:31;9.00;99.90
58469;DHT22;44257;44.804;10.220;2023-02-28T14:58:03;9.00;99.90
58469;DHT22;44257;44.804;10.220;2023-02-28T15:00:48;9.00;99.90
58469;DHT22;44257;44.804;10.220;2023-02-28T15:03:21;9.00;99.90
58469;DHT22;44257;44.804;10.220;2023-02-28T15:06:13;8.80;99.90
58469;DHT22;44257;44.804;10.220;2023-02-28T15:08:39;8.70;99.90
58469;DHT22;44257;44.804;10.220;2023-02-28T15:11:14;8.70;99.90
58469;DHT22;44257;44.804;10.220;2023-02-28T15:13:44;8.70;99.90
58469;DHT22;44257;44.804;10.220;2023-02-28T15:16:21;8.70;99.90
58469;DHT22;44257;44.804;10.220;2023-02-28T15:19:22;8.80;99.90
58469;DHT22;44257;44.804;10.220;2023-02-28T15:21:53;9.00;99.90
58469;DHT22;44257;44.804;10.220;2023-02-28T15:26:58;8.90;99.90
58469;DHT22;44257;44.804;10.220;2023-02-28T15:29:25;8.80;99.90
58469;DHT22;44257;44.804;10.220;2023-02-28T15:32:03;8.80;99.90
58469;DHT22;44257;44.804;10.220;2023-02-28T15:34:44;8.80;99.90
58469;DHT22;44257;44.804;10.220;2023-02-28T15:37:45;8.70;99.90
58469;DHT22;44257;44.804;10.220;2023-02-28T15:42:39;8.50;99.90
58469;DHT22;44257;44.804;10.220;2023-02-28T15:45:06;8.50;99.90
58469;DHT22;44257;44.804;10.220;2023-02-28T15:47:51;8.50;99.90
58469;DHT22;44257;44.804;10.220;2023-02-28T15:50:17;8.60;99.90
58469;DHT22;44257;44.804;10.220;2023-02-28T15:52:44;8.70;99.90
58469;DHT22;44257;44.804;10.220;2023-02-28T15:55:20;8.70;99.90
58469;DHT22;44257;44.804;10.220;2023-02-28T15:57:53;8.80;99.90
58469;DHT22;44257;44.804;10.220;2023-02-28T16:00:21;8.80;99.90
58469;DHT22;44257;44.804;10.220;2023-02-28T16:02:48;8.80;99.90
58469;DHT22;44257;44.804;10.220;2023-02-28T16:05:21;8.60;99.90
58469;DHT22;44257;44.804;10.220;2023-02-28T16:07:55;8.50;99.90
58469;DHT22;44257;44.804;10.220;2023-02-28T16:10:22;8.30;99.90
58469;DHT22;44257;44.804;10.220;2023-02-28T16:12:53;8.20;99.90
58469;DHT22;44257;44.804;10.220;2023-02-28T16:15:28;8.00;99.90
58469;DHT22;44257;44.804;10.220;2023-02-28T16:17:56;7.80;99.90
58469;DHT22;44257;44.804;10.220;2023-02-28T16:20:30;7.70;99.90
58469;DHT22;44257;44.804;10.220;2023-02-28T16:22:56;7.50;99.90
58469;DHT22;44257;44.804;10.220;2023-02-28T16:25:34;7.30;99.90
58469;DHT22;44257;44.804;10.220;2023-02-28T16:28:01;7.00;99.90
58469;DHT22;44257;44.804;10.220;2023-02-28T16:30:28;6.90;99.90
58469;DHT22;44257;44.804;10.220;2023-02-28T16:32:57;6.80;99.90
58469;DHT22;44257;44.804;10.220;2023-02-28T16:35:23;6.60;99.90
58469;DHT22;44257;44.804;10.220;2023-02-28T16:37:53;6.50;99.90
58469;DHT22;44257;44.804;10.220;2023-02-28T16:40:21;6.30;99.90
58469;DHT22;44257;44.804;10.220;2023-02-28T16:42:53;6.30;99.90
58469;DHT22;44257;44.804;10.220;2023-02-28T16:45:23;6.20;99.90
58469;DHT22;44257;44.804;10.220;2023-02-28T16:47:50;6.20;99.90
58469;DHT22;44257;44.804;10.220;2023-02-28T16:50:18;6.10;99.90
58469;DHT22;44257;44.804;10.220;2023-02-28T16:52:44;6.10;99.90
58469;DHT22;44257;44.804;10.220;2023-02-28T16:55:11;6.00;99.90
58469;DHT22;44257;44.804;10.220;2023-02-28T16:57:37;6.00;99.90
58469;DHT22;44257;44.804;10.220;2023-02-28T17:00:05;5.90;99.90
58469;DHT22;44257;44.804;10.220;2023-02-28T17:02:34;5.80;99.90
58469;DHT22;44257;44.804;10.220;2023-02-28T17:05:00;5.90;99.90
58469;DHT22;44257;44.804;10.220;2023-02-28T17:07:26;5.80;99.90
58469;DHT22;44257;44.804;10.220;2023-02-28T17:09:51;5.80;99.90
58469;DHT22;44257;44.804;10.220;2023-02-28T17:12:17;5.80;99.90
58469;DHT22;44257;44.804;10.220;2023-02-28T17:14:43;5.70;99.90
58469;DHT22;44257;44.804;10.220;2023-02-28T17:17:17;5.70;99.90
58469;DHT22;44257;44.804;10.220;2023-02-28T17:19:43;5.70;99.90
58469;DHT22;44257;44.804;10.220;2023-02-28T17:22:10;5.70;99.90
58469;DHT22;44257;44.804;10.220;2023-02-28T17:24:35;5.70;99.90
58469;DHT22;44257;44.804;10.220;2023-02-28T17:27:01;5.70;99.90
58469;DHT22;44257;44.804;10.220;2023-02-28T17:29:27;5.60;99.90
58469;DHT22;44257;44.804;10.220;2023-02-28T17:31:53;5.60;99.90
58469;DHT22;44257;44.804;10.220;2023-02-28T17:34:19;5.50;99.90
58469;DHT22;44257;44.804;10.220;2023-02-28T17:36:50;5.50;99.90
58469;DHT22;44257;44.804;10.220;2023-02-28T17:39:18;5.50;99.90
58469;DHT22;44257;44.804;10.220;2023-02-28T17:41:54;5.50;99.90
58469;DHT22;44257;44.804;10.220;2023-02-28T17:44:21;5.50;99.90
58469;DHT22;44257;44.804;10.220;2023-02-28T17:46:47;5.50;99.90
58469;DHT22;44257;44.804;10.220;2023-02-28T17:49:15;5.50;99.90
58469;DHT22;44257;44.804;10.220;2023-02-28T17:51:40;5.50;99.90
58469;DHT22;44257;44.804;10.220;2023-02-28T17:54:06;5.50;99.90
58469;DHT22;44257;44.804;10.220;2023-02-28T17:56:32;5.50;99.90
58469;DHT22;44257;44.804;10.220;2023-02-28T17:58:58;5.50;99.90
58469;DHT22;44257;44.804;10.220;2023-02-28T18:01:24;5.50;99.90
58469;DHT22;44257;44.804;10.220;2023-02-28T18:03:52;5.50;99.90
58469;DHT22;44257;44.804;10.220;2023-02-28T18:06:35;5.50;99.90
58469;DHT22;44257;44.804;10.220;2023-02-28T18:09:01;5.50;99.90
58469;DHT22;44257;44.804;10.220;2023-02-28T18:11:27;5.60;99.90
58469;DHT22;44257;44.804;10.220;2023-02-28T18:14:07;5.60;99.90
58469;DHT22;44257;44.804;10.220;2023-02-28T18:16:33;5.60;99.90
58469;DHT22;44257;44.804;10.220;2023-02-28T18:18:59;5.70;99.90
58469;DHT22;44257;44.804;10.220;2023-02-28T18:21:27;5.70;99.90
58469;DHT22;44257;44.804;10.220;2023-02-28T18:23:53;5.70;99.90
58469;DHT22;44257;44.804;10.220;2023-02-28T18:26:19;5.80;99.90
58469;DHT22;44257;44.804;10.220;2023-02-28T18:28:46;5.80;99.90
58469;DHT22;44257;44.804;10.220;2023-02-28T18:31:14;5.80;99.90
58469;DHT22;44257;44.804;10.220;2023-02-28T18:33:44;5.70;99.90